Time;durP1;ratioP1;P1;durP2;ratioP2;P2;SDS_P1;SDS_P2;PMS_P1;PMS_P2;Temp;Humidity;BMP_temperature;BMP_pressure;BME280_temperature;BME280_humidity;BME280_pressure;Samples;Min_cycle;Max_cycle;Signal;HPM_P1;HPM_P2
2021/06/16 00:01:04;;;;;;;5.65;0.85;;;16.20;99.90;;;;;;5056569;28;20025;-76
2021/06/16 00:03:29;;;;;;;2.97;0.00;;;16.10;99.90;;;;;;5056570;28;20032;-77
2021/06/16 00:05:55;;;;;;;3.55;0.15;;;16.10;99.90;;;;;;5056415;28;20118;-77
2021/06/16 00:08:21;;;;;;;2.40;0.10;;;16.10;99.90;;;;;;5038479;28;20013;-76
2021/06/16 00:10:47;;;;;;;3.72;0.50;;;16.10;99.90;;;;;;5056978;28;20024;-77
2021/06/16 00:13:12;;;;;;;1.90;0.32;;;16.10;99.90;;;;;;5056755;28;20036;-77
2021/06/16 00:15:43;;;;;;;3.10;0.20;;;16.00;99.90;;;;;;5038571;28;20064;-77
2021/06/16 00:18:09;;;;;;;2.40;0.22;;;16.00;99.90;;;;;;5038347;28;20509;-77
2021/06/16 00:20:35;;;;;;;2.13;0.43;;;16.00;99.90;;;;;;5038884;28;20025;-77
2021/06/16 00:23:01;;;;;;;4.20;0.60;;;16.00;99.90;;;;;;5038443;28;20021;-77
2021/06/16 00:25:27;;;;;;;2.20;0.30;;;16.00;99.90;;;;;;5038268;28;20029;-77
2021/06/16 00:27:52;;;;;;;7.03;0.40;;;16.00;99.90;;;;;;5056033;28;20028;-77
2021/06/16 00:30:18;;;;;;;3.42;0.30;;;15.90;99.90;;;;;;5055768;28;20052;-77
2021/06/16 00:32:47;;;;;;;2.65;0.68;;;15.90;99.90;;;;;;5038424;28;20020;-77
2021/06/16 00:35:19;;;;;;;7.00;0.68;;;15.90;99.90;;;;;;5056003;28;20637;-77
2021/06/16 00:37:49;;;;;;;3.75;0.40;;;15.80;99.90;;;;;;5070059;23;20573;-77
2021/06/16 00:40:17;;;;;;;4.38;0.30;;;15.80;99.90;;;;;;5035820;28;20112;-77
2021/06/16 00:42:43;;;;;;;2.60;0.57;;;15.70;99.90;;;;;;5035999;28;20021;-77
2021/06/16 00:45:10;;;;;;;7.90;0.98;;;15.70;99.90;;;;;;5018058;28;20021;-77
2021/06/16 00:47:36;;;;;;;1.55;0.10;;;15.70;99.90;;;;;;5036090;28;20026;-77
2021/06/16 00:50:04;;;;;;;4.45;0.95;;;15.70;99.90;;;;;;5035510;28;20382;-77
2021/06/16 00:52:30;;;;;;;4.70;0.32;;;15.60;99.90;;;;;;5017800;28;20518;-77
2021/06/16 00:54:55;;;;;;;5.43;0.70;;;15.60;99.90;;;;;;5018201;28;20048;-76
2021/06/16 00:57:21;;;;;;;4.63;0.63;;;15.60;99.90;;;;;;5017734;28;20014;-77
2021/06/16 01:00:06;;;;;;;3.80;0.60;;;15.60;99.90;;;;;;5035357;28;20026;-76
2021/06/16 01:02:37;;;;;;;3.28;0.20;;;15.50;99.90;;;;;;5035549;28;20017;-76
2021/06/16 01:05:07;;;;;;;1.92;0.38;;;15.50;99.90;;;;;;5035994;28;20028;-76
2021/06/16 01:07:40;;;;;;;2.22;0.10;;;15.40;99.90;;;;;;5035449;28;20021;-76
2021/06/16 01:10:10;;;;;;;3.40;0.55;;;15.30;99.90;;;;;;5035483;28;20018;-76
2021/06/16 01:12:43;;;;;;;4.32;0.30;;;15.30;99.90;;;;;;5017311;28;20032;-76
2021/06/16 01:15:19;;;;;;;2.17;0.30;;;15.20;99.90;;;;;;5035607;28;20029;-76
2021/06/16 01:17:51;;;;;;;2.45;0.65;;;15.20;99.90;;;;;;5035215;28;20042;-77
2021/06/16 01:20:45;;;;;;;3.45;0.30;;;15.10;99.90;;;;;;5035437;28;20482;-77
2021/06/16 01:24:00;;;;;;;4.55;0.85;;;15.10;99.90;;;;;;5017525;28;20029;-76
2021/06/16 01:26:38;;;;;;;3.40;0.52;;;15.10;99.90;;;;;;5022018;28;20042;-76
2021/06/16 01:29:10;;;;;;;6.05;0.88;;;15.10;99.90;;;;;;5034885;28;20530;-76
2021/06/16 01:31:37;;;;;;;3.88;0.35;;;15.10;99.90;;;;;;5034982;28;20097;-76
2021/06/16 01:34:04;;;;;;;5.15;1.27;;;15.10;99.90;;;;;;5035168;28;20355;-77
2021/06/16 01:36:33;;;;;;;7.15;0.95;;;15.00;99.90;;;;;;5035084;28;20123;-76
2021/06/16 01:38:59;;;;;;;;;;;15.00;99.90;;;;;;5017188;28;20037;-77
2021/06/16 01:41:25;;;;;;;6.35;0.20;;;15.00;99.90;;;;;;5034710;28;20008;-77
2021/06/16 01:43:54;;;;;;;2.53;0.70;;;14.90;99.90;;;;;;5034831;28;20479;-77
2021/06/16 01:46:22;;;;;;;6.38;0.73;;;14.90;99.90;;;;;;5017312;28;20466;-77
2021/06/16 01:48:48;;;;;;;4.70;0.38;;;14.90;99.90;;;;;;5034404;28;20029;-77
2021/06/16 01:51:15;;;;;;;4.38;0.50;;;14.90;99.90;;;;;;5034732;28;20075;-77
2021/06/16 01:53:41;;;;;;;2.65;0.68;;;14.90;99.90;;;;;;5034535;28;20071;-76
2021/06/16 01:56:08;;;;;;;3.38;0.30;;;14.80;99.90;;;;;;5016024;28;20120;-76
2021/06/16 01:58:34;;;;;;;3.60;0.47;;;14.80;99.90;;;;;;5035100;28;20029;-77
2021/06/16 02:01:01;;;;;;;8.98;0.47;;;14.80;99.90;;;;;;5034383;28;20495;-76
2021/06/16 02:03:31;;;;;;;9.13;1.13;;;14.70;99.90;;;;;;5016644;28;20565;-76
2021/06/16 02:05:58;;;;;;;3.25;0.50;;;14.70;99.90;;;;;;5016039;28;20556;-76
2021/06/16 02:08:27;;;;;;;6.18;0.32;;;14.60;99.90;;;;;;5016497;28;20025;-76
2021/06/16 02:10:54;;;;;;;2.78;0.60;;;14.60;99.90;;;;;;5016497;28;20033;-76
2021/06/16 02:13:32;;;;;;;2.03;0.60;;;14.50;99.90;;;;;;5034145;28;20014;-77
2021/06/16 02:16:08;;;;;;;6.25;0.98;;;14.50;99.90;;;;;;5034178;28;20025;-76
2021/06/16 02:18:45;;;;;;;3.58;0.30;;;14.40;99.90;;;;;;5016401;28;20033;-77
2021/06/16 02:21:12;;;;;;;6.53;0.52;;;14.40;99.90;;;;;;5034442;28;20045;-76
2021/06/16 02:23:38;;;;;;;3.65;0.47;;;14.40;99.90;;;;;;5016069;28;20035;-76
2021/06/16 02:26:04;;;;;;;2.17;0.68;;;14.30;99.90;;;;;;5033937;28;20033;-76
2021/06/16 02:28:31;;;;;;;3.90;0.70;;;14.30;99.90;;;;;;5016456;28;20497;-77
2021/06/16 02:30:56;;;;;;;5.57;0.45;;;14.30;99.90;;;;;;5016225;28;20554;-76
2021/06/16 02:33:22;;;;;;;5.13;0.50;;;14.30;99.90;;;;;;5015908;28;20022;-76
2021/06/16 02:35:48;;;;;;;6.72;0.70;;;14.30;99.90;;;;;;5034376;28;20033;-76
2021/06/16 02:38:19;;;;;;;5.63;0.38;;;14.30;99.90;;;;;;5015872;28;20104;-76
2021/06/16 02:40:48;;;;;;;3.40;0.63;;;14.20;99.90;;;;;;5033554;28;20038;-76
2021/06/16 02:43:13;;;;;;;4.65;0.90;;;14.20;99.90;;;;;;5033422;28;20470;-76
2021/06/16 02:45:41;;;;;;;3.08;0.98;;;14.20;99.90;;;;;;5033611;28;20104;-77
2021/06/16 02:48:08;;;;;;;7.15;1.13;;;14.10;99.90;;;;;;5033492;28;20024;-76
2021/06/16 02:50:36;;;;;;;2.78;0.30;;;14.10;99.90;;;;;;5033323;28;20025;-77
2021/06/16 02:53:12;;;;;;;4.95;0.52;;;14.10;99.90;;;;;;5033311;28;20028;-77
2021/06/16 02:55:39;;;;;;;5.75;0.63;;;14.10;99.90;;;;;;5034171;28;20033;-77
2021/06/16 02:58:06;;;;;;;4.32;0.82;;;14.00;99.90;;;;;;5033328;28;20026;-77
2021/06/16 03:00:32;;;;;;;3.88;1.23;;;14.00;99.90;;;;;;5015258;28;20434;-77
2021/06/16 03:02:59;;;;;;;3.90;1.05;;;14.00;99.90;;;;;;5015699;28;20021;-77
2021/06/16 03:05:27;;;;;;;3.63;0.95;;;13.90;99.90;;;;;;5015426;28;20041;-77
2021/06/16 03:07:58;;;;;;;2.07;0.57;;;13.90;99.90;;;;;;5032648;28;20026;-77
2021/06/16 03:10:26;;;;;;;5.80;1.17;;;13.90;99.90;;;;;;5033178;28;20127;-77
2021/06/16 03:12:55;;;;;;;4.60;0.85;;;13.90;99.90;;;;;;5015915;28;20502;-77
2021/06/16 03:15:22;;;;;;;7.07;0.77;;;13.90;99.90;;;;;;5033935;28;20032;-78
2021/06/16 03:17:48;;;;;;;4.32;0.70;;;13.90;99.90;;;;;;5033646;28;20037;-77
2021/06/16 03:20:20;;;;;;;2.35;0.52;;;13.90;99.90;;;;;;5033265;28;20072;-77
2021/06/16 03:22:47;;;;;;;4.18;1.30;;;13.90;99.90;;;;;;5015973;28;20068;-78
2021/06/16 03:25:14;;;;;;;3.80;0.85;;;13.80;99.90;;;;;;5015642;28;20033;-78
2021/06/16 03:27:41;;;;;;;4.90;0.50;;;13.80;99.90;;;;;;5033367;28;20022;-77
2021/06/16 03:30:10;;;;;;;5.80;1.08;;;13.90;99.90;;;;;;5015426;28;20116;-77
2021/06/16 03:32:36;;;;;;;7.00;0.55;;;13.80;99.90;;;;;;5033362;28;20029;-78
2021/06/16 03:35:04;;;;;;;2.70;0.50;;;13.80;99.90;;;;;;5033746;28;20032;-78
2021/06/16 03:37:31;;;;;;;4.55;0.82;;;13.80;99.90;;;;;;5015349;28;20108;-78
2021/06/16 03:39:57;;;;;;;2.97;0.50;;;14.20;99.90;;;;;;5033212;28;20441;-77
2021/06/16 03:42:24;;;;;;;3.38;0.60;;;13.80;99.90;;;;;;5015494;28;20084;-77
2021/06/16 03:44:51;;;;;;;2.38;0.75;;;13.90;99.90;;;;;;5015211;28;20018;-77
2021/06/16 03:47:19;;;;;;;5.30;0.93;;;13.90;99.90;;;;;;5014895;28;20021;-77
2021/06/16 03:49:47;;;;;;;3.35;0.50;;;13.90;99.90;;;;;;5032847;28;20059;-77
2021/06/16 03:52:15;;;;;;;3.83;0.80;;;14.00;99.90;;;;;;5033239;28;20383;-77
2021/06/16 03:54:41;;;;;;;4.25;0.75;;;14.00;99.90;;;;;;5033201;28;20072;-77
2021/06/16 03:57:08;;;;;;;3.80;0.80;;;14.00;99.90;;;;;;5014945;28;20056;-77
2021/06/16 03:59:35;;;;;;;2.05;0.60;;;14.10;99.90;;;;;;5032922;28;20033;-77
2021/06/16 04:02:01;;;;;;;4.00;0.52;;;14.10;99.90;;;;;;5015394;28;20032;-77
2021/06/16 04:04:27;;;;;;;3.47;1.23;;;14.20;99.90;;;;;;5033284;28;20487;-77
2021/06/16 04:06:53;;;;;;;1.60;0.70;;;14.20;99.90;;;;;;5032648;28;20113;-77
2021/06/16 04:09:20;;;;;;;2.30;0.32;;;14.20;99.90;;;;;;5037759;28;20024;-77
2021/06/16 04:11:45;;;;;;;4.82;0.85;;;14.30;99.90;;;;;;5018167;28;20550;-77
2021/06/16 04:14:11;;;;;;;2.35;1.17;;;14.30;99.90;;;;;;5032867;28;20052;-77
2021/06/16 04:16:41;;;;;;;3.83;0.50;;;14.40;99.90;;;;;;5033368;28;20037;-78
2021/06/16 04:19:07;;;;;;;5.13;0.77;;;14.50;99.90;;;;;;5018074;28;20025;-77
2021/06/16 04:21:33;;;;;;;5.65;0.95;;;14.50;99.90;;;;;;5036909;28;20025;-78
2021/06/16 04:23:58;;;;;;;1.70;1.02;;;14.60;99.90;;;;;;5036512;28;20030;-78
2021/06/16 04:26:24;;;;;;;6.28;0.98;;;14.70;99.90;;;;;;5036593;28;20030;-77
2021/06/16 04:28:50;;;;;;;3.65;1.08;;;14.80;99.90;;;;;;5036128;28;20033;-77
2021/06/16 04:31:16;;;;;;;3.60;1.05;;;14.90;99.90;;;;;;5036114;28;20025;-77
2021/06/16 04:33:42;;;;;;;4.68;0.98;;;15.00;99.90;;;;;;5018352;28;20359;-77
2021/06/16 04:36:07;;;;;;;4.35;0.88;;;15.10;99.90;;;;;;5035955;28;20040;-77
2021/06/16 04:38:34;;;;;;;6.25;0.73;;;15.20;99.90;;;;;;5017766;28;20103;-77
2021/06/16 04:41:00;;;;;;;5.07;0.68;;;15.30;99.90;;;;;;5035888;28;20021;-77
2021/06/16 04:43:26;;;;;;;1.88;0.70;;;15.40;99.90;;;;;;5017909;28;20029;-77
2021/06/16 04:45:52;;;;;;;4.78;0.52;;;15.50;99.90;;;;;;5035852;28;20033;-77
2021/06/16 04:48:18;;;;;;;5.35;1.00;;;15.60;99.90;;;;;;5035217;28;20490;-77
2021/06/16 04:50:44;;;;;;;5.13;0.90;;;15.70;99.90;;;;;;5035669;28;20025;-76
2021/06/16 04:53:09;;;;;;;4.07;0.35;;;15.90;99.90;;;;;;5035734;28;20026;-77
2021/06/16 04:55:35;;;;;;;4.00;0.63;;;16.00;99.90;;;;;;5035472;28;20543;-76
2021/06/16 04:58:01;;;;;;;5.95;0.65;;;16.20;99.90;;;;;;5035923;28;20556;-76
2021/06/16 05:00:27;;;;;;;4.38;0.88;;;16.30;99.90;;;;;;5035966;28;20038;-76
2021/06/16 05:02:54;;;;;;;3.35;1.13;;;16.40;99.90;;;;;;5035713;28;20405;-77
2021/06/16 05:05:19;;;;;;;8.02;0.60;;;16.60;99.90;;;;;;5035277;28;20451;-77
2021/06/16 05:07:45;;;;;;;2.63;0.45;;;16.70;99.90;;;;;;5017477;28;20025;-77
2021/06/16 05:10:11;;;;;;;2.90;0.52;;;16.80;99.90;;;;;;5034601;28;20037;-77
2021/06/16 05:12:37;;;;;;;5.22;1.30;;;17.00;99.90;;;;;;5035649;28;20494;-77
2021/06/16 05:15:04;;;;;;;2.25;0.60;;;17.20;99.90;;;;;;5035203;28;20021;-77
2021/06/16 05:17:30;;;;;;;1.88;0.40;;;17.30;99.90;;;;;;5034999;28;20029;-77
2021/06/16 05:19:56;;;;;;;2.78;0.82;;;17.40;99.90;;;;;;5035056;28;20467;-77
2021/06/16 05:22:23;;;;;;;4.43;0.90;;;17.60;99.90;;;;;;5017428;28;20438;-76
2021/06/16 05:24:49;;;;;;;4.78;0.50;;;17.70;99.90;;;;;;5035202;28;20022;-76
2021/06/16 05:27:15;;;;;;;3.70;0.50;;;17.90;99.90;;;;;;5016798;28;20555;-76
2021/06/16 05:29:42;;;;;;;3.85;0.50;;;18.10;99.90;;;;;;5016237;28;20110;-76
2021/06/16 05:32:08;;;;;;;2.90;0.22;;;18.20;99.90;;;;;;5017247;28;20026;-76
2021/06/16 05:34:34;;;;;;;1.15;0.38;;;18.40;99.90;;;;;;5034703;28;20022;-76
2021/06/16 05:37:00;;;;;;;6.20;0.20;;;18.50;99.90;;;;;;5016510;28;20068;-76
2021/06/16 05:39:25;;;;;;;7.15;0.57;;;18.60;99.90;;;;;;5034613;28;20482;-76
2021/06/16 05:41:52;;;;;;;3.53;0.65;;;18.80;99.90;;;;;;5033697;28;20100;-76
2021/06/16 05:44:17;;;;;;;5.85;0.30;;;18.90;99.90;;;;;;5017083;28;20021;-77
2021/06/16 05:46:43;;;;;;;4.35;0.55;;;19.10;99.90;;;;;;5034794;28;20109;-78
2021/06/16 05:49:08;;;;;;;3.78;0.40;;;19.20;99.90;;;;;;5017281;28;20016;-77
2021/06/16 05:51:34;;;;;;;3.33;0.77;;;19.30;99.90;;;;;;5017641;28;20029;-77
2021/06/16 05:53:59;;;;;;;2.58;0.05;;;19.40;99.80;;;;;;5034604;28;20545;-77
2021/06/16 05:56:25;;;;;;;2.95;0.32;;;19.50;99.50;;;;;;5016438;28;20536;-77
2021/06/16 05:58:50;;;;;;;2.88;0.40;;;19.60;98.90;;;;;;5017207;28;20036;-78
2021/06/16 06:01:16;;;;;;;2.22;0.22;;;19.70;98.40;;;;;;5034626;28;20025;-77
2021/06/16 06:03:42;;;;;;;4.88;0.15;;;19.80;97.70;;;;;;5034817;28;20029;-77
2021/06/16 06:06:09;;;;;;;2.03;0.30;;;19.90;96.80;;;;;;5034625;28;20024;-76
2021/06/16 06:08:35;;;;;;;3.67;0.30;;;20.00;96.50;;;;;;5034261;28;20078;-77
2021/06/16 06:11:02;;;;;;;2.53;0.43;;;20.10;96.20;;;;;;5016475;28;20489;-76
2021/06/16 06:13:27;;;;;;;4.50;0.30;;;20.30;95.20;;;;;;5034269;28;20017;-76
2021/06/16 06:15:53;;;;;;;3.47;0.10;;;20.40;95.10;;;;;;5016415;28;20359;-76
2021/06/16 06:18:19;;;;;;;3.10;0.15;;;20.40;94.70;;;;;;5016545;28;20030;-77
2021/06/16 06:20:45;;;;;;;3.33;0.50;;;20.60;94.60;;;;;;5034140;28;20026;-77
2021/06/16 06:23:10;;;;;;;1.05;0.00;;;20.70;93.70;;;;;;5033917;28;20033;-77
2021/06/16 06:25:36;;;;;;;3.65;0.32;;;20.80;93.40;;;;;;5034174;28;20029;-77
2021/06/16 06:28:03;;;;;;;3.50;0.00;;;20.90;92.90;;;;;;5032962;28;20029;-76
2021/06/16 06:30:29;;;;;;;5.35;0.57;;;21.00;92.70;;;;;;5034204;28;20018;-77
2021/06/16 06:32:55;;;;;;;43.53;7.72;;;21.10;92.20;;;;;;5016199;28;20052;-76
2021/06/16 06:35:21;;;;;;;7.30;1.38;;;21.20;92.10;;;;;;5033317;28;20025;-77
2021/06/16 06:37:46;;;;;;;7.38;0.30;;;21.40;91.20;;;;;;5033279;28;20033;-77
2021/06/16 06:40:12;;;;;;;1.35;0.20;;;21.50;91.10;;;;;;5034058;28;20475;-76
2021/06/16 06:42:38;;;;;;;3.08;0.10;;;21.70;90.20;;;;;;5035057;28;20402;-78
2021/06/16 06:45:06;;;;;;;3.20;0.52;;;21.80;87.60;;;;;;5034261;28;20045;-78
2021/06/16 06:47:32;;;;;;;2.80;0.30;;;21.90;87.10;;;;;;5033695;28;20079;-78
2021/06/16 06:49:57;;;;;;;2.30;0.10;;;21.90;85.30;;;;;;5016897;28;20017;-78
2021/06/16 06:52:23;;;;;;;4.90;0.30;;;22.10;85.20;;;;;;5035559;28;20028;-78
2021/06/16 06:54:49;;;;;;;1.95;0.10;;;22.20;84.60;;;;;;5034639;28;20467;-78
2021/06/16 06:57:15;;;;;;;0.73;0.08;;;22.40;83.40;;;;;;5033535;28;20125;-78
2021/06/16 06:59:40;;;;;;;1.05;0.00;;;22.40;81.20;;;;;;5033359;28;20035;-79
2021/06/16 07:02:12;;;;;;;5.65;0.10;;;22.50;80.70;;;;;;5017188;28;20029;-78
2021/06/16 07:04:37;;;;;;;4.03;0.47;;;22.90;79.20;;;;;;5017270;28;20039;-79
2021/06/16 07:07:03;;;;;;;3.72;0.00;;;22.60;78.10;;;;;;5035454;28;20390;-78
2021/06/16 07:09:29;;;;;;;3.40;0.60;;;22.80;77.90;;;;;;5017607;28;20080;-78
2021/06/16 07:11:54;;;;;;;2.10;0.30;;;22.90;75.10;;;;;;5017566;28;20467;-79
2021/06/16 07:14:20;;;;;;;3.40;0.43;;;23.00;74.90;;;;;;5017006;28;20025;-78
2021/06/16 07:16:45;;;;;;;1.08;0.35;;;23.20;74.30;;;;;;5016447;28;20033;-78
2021/06/16 07:19:11;;;;;;;3.30;0.10;;;23.20;73.50;;;;;;5016296;28;20057;-78
2021/06/16 07:21:36;;;;;;;3.58;0.30;;;23.30;72.20;;;;;;5034330;28;20620;-78
2021/06/16 07:24:04;;;;;;;1.73;0.10;;;23.50;70.40;;;;;;5033784;28;20112;-78
2021/06/16 07:26:30;;;;;;;2.30;0.28;;;23.50;69.50;;;;;;5034329;28;20029;-77
2021/06/16 07:28:56;;;;;;;0.65;0.10;;;23.50;68.40;;;;;;5016735;28;20018;-78
2021/06/16 07:31:21;;;;;;;2.33;0.15;;;23.60;68.30;;;;;;5017046;28;20028;-78
2021/06/16 07:33:47;;;;;;;2.60;0.77;;;23.60;68.30;;;;;;5034593;28;20024;-78
2021/06/16 07:36:15;;;;;;;1.30;0.10;;;23.80;67.90;;;;;;5033590;28;20036;-78
2021/06/16 07:38:40;;;;;;;0.10;0.00;;;23.90;67.80;;;;;;5034223;28;20033;-78
2021/06/16 07:41:06;;;;;;;2.75;0.00;;;24.00;67.40;;;;;;5033981;28;20423;-78
2021/06/16 07:43:31;;;;;;;4.70;0.20;;;24.10;66.70;;;;;;5016760;28;20033;-78
2021/06/16 07:45:57;;;;;;;2.60;0.10;;;24.10;66.50;;;;;;5016312;28;20017;-78
2021/06/16 07:48:23;;;;;;;2.25;0.00;;;24.20;67.30;;;;;;5016775;28;20026;-78
2021/06/16 07:50:48;;;;;;;2.17;0.25;;;24.40;66.90;;;;;;5016029;28;20025;-78
2021/06/16 07:53:14;;;;;;;1.45;0.00;;;24.60;66.00;;;;;;5035955;28;20025;-78
2021/06/16 07:55:40;;;;;;;4.75;0.10;;;24.70;66.20;;;;;;5039215;28;20107;-79
2021/06/16 07:58:07;;;;;;;2.65;0.00;;;24.80;65.50;;;;;;5038157;28;20037;-78
2021/06/16 08:00:33;;;;;;;1.35;0.00;;;24.90;65.10;;;;;;5037598;28;20026;-78
2021/06/16 08:02:59;;;;;;;1.48;0.45;;;25.00;63.90;;;;;;5037973;28;20113;-78
2021/06/16 08:05:24;;;;;;;3.60;0.00;;;25.10;63.90;;;;;;5038542;28;20474;-78
2021/06/16 08:07:50;;;;;;;0.75;0.22;;;25.20;63.70;;;;;;5019602;28;20037;-78
2021/06/16 08:10:15;;;;;;;2.25;0.10;;;25.30;62.60;;;;;;5020007;28;20390;-78
2021/06/16 08:12:41;;;;;;;4.82;0.00;;;25.40;62.10;;;;;;5020194;28;20100;-78
2021/06/16 08:15:08;;;;;;;0.30;0.13;;;25.40;61.60;;;;;;5037291;28;20032;-78
2021/06/16 08:17:34;;;;;;;1.85;0.38;;;25.40;62.10;;;;;;5020273;28;20020;-78
2021/06/16 08:20:00;;;;;;;2.22;0.00;;;25.40;61.80;;;;;;5020385;28;20513;-78
2021/06/16 08:22:26;;;;;;;0.20;0.10;;;25.50;61.40;;;;;;5037868;28;20018;-78
2021/06/16 08:24:51;;;;;;;0.45;0.10;;;25.60;61.50;;;;;;5019552;28;20099;-78
2021/06/16 08:27:17;;;;;;;1.67;0.00;;;25.70;61.50;;;;;;5037893;28;20025;-78
2021/06/16 08:29:42;;;;;;;0.47;0.20;;;25.80;61.50;;;;;;5037454;28;20021;-78
2021/06/16 08:32:08;;;;;;;2.40;0.10;;;26.00;61.00;;;;;;5036081;28;20025;-78
2021/06/16 08:34:36;;;;;;;0.57;0.05;;;26.00;61.10;;;;;;5036678;28;20080;-78
2021/06/16 08:37:02;;;;;;;1.75;0.30;;;26.10;60.90;;;;;;5036356;28;20025;-78
2021/06/16 08:39:28;;;;;;;2.28;0.40;;;26.30;60.10;;;;;;5019641;28;20121;-77
2021/06/16 08:41:54;;;;;;;4.88;0.10;;;26.30;60.50;;;;;;5023534;28;20053;-78
2021/06/16 08:44:19;;;;;;;1.38;0.00;;;26.40;60.50;;;;;;5010314;28;20025;-78
2021/06/16 08:46:46;;;;;;;1.88;0.43;;;26.50;59.80;;;;;;5016956;28;20036;-78
2021/06/16 08:49:12;;;;;;;1.63;0.30;;;26.50;59.20;;;;;;5037311;28;20029;-78
2021/06/16 08:51:41;;;;;;;2.35;0.40;;;26.60;59.50;;;;;;5037296;28;20025;-78
2021/06/16 08:54:08;;;;;;;5.97;0.52;;;26.60;59.50;;;;;;5037353;28;20018;-78
2021/06/16 08:56:34;;;;;;;4.03;0.00;;;26.70;58.40;;;;;;5037917;28;20096;-79
2021/06/16 08:59:00;;;;;;;2.40;0.10;;;26.80;58.60;;;;;;5037557;28;20049;-78
2021/06/16 09:01:26;;;;;;;3.10;0.10;;;26.80;58.80;;;;;;5019271;28;20060;-79
2021/06/16 09:03:51;;;;;;;1.58;0.10;;;26.90;58.40;;;;;;5036623;28;20071;-79
2021/06/16 09:06:17;;;;;;;1.75;0.35;;;26.90;58.60;;;;;;5018780;28;20044;-78
2021/06/16 09:09:01;;;;;;;0.90;0.35;;;27.00;58.70;;;;;;5037399;28;20096;-78
2021/06/16 09:11:41;;;;;;;1.70;0.05;;;27.00;57.80;;;;;;5019413;28;20045;-78
2021/06/16 09:14:14;;;;;;;1.90;0.10;;;27.00;57.90;;;;;;5037449;28;20060;-78
2021/06/16 09:16:40;;;;;;;3.88;0.40;;;27.20;57.40;;;;;;5019511;28;20025;-78
2021/06/16 09:19:23;;;;;;;2.92;0.13;;;27.20;58.00;;;;;;5019292;28;20426;-78
2021/06/16 09:21:56;;;;;;;1.75;0.10;;;27.30;57.90;;;;;;5019881;28;20117;-78
2021/06/16 09:24:22;;;;;;;2.13;0.13;;;27.40;57.10;;;;;;5037503;28;20032;-78
2021/06/16 09:26:47;;;;;;;2.55;0.43;;;27.40;56.90;;;;;;5036939;28;20029;-78
2021/06/16 09:29:13;;;;;;;1.83;0.20;;;27.50;57.20;;;;;;5037080;28;20033;-78
2021/06/16 09:31:40;;;;;;;0.52;0.10;;;27.60;56.30;;;;;;5018823;28;20017;-78
2021/06/16 09:34:17;;;;;;;0.30;0.20;;;27.60;55.80;;;;;;5036739;28;20156;-78
2021/06/16 09:36:51;;;;;;;1.75;0.13;;;27.80;56.40;;;;;;5019142;28;20049;-77
2021/06/16 09:39:34;;;;;;;2.05;0.22;;;27.80;56.80;;;;;;5036672;28;20104;-78
2021/06/16 09:42:12;;;;;;;1.10;0.00;;;27.90;56.30;;;;;;5036511;28;20065;-78
2021/06/16 09:44:47;;;;;;;1.20;0.23;;;28.00;56.30;;;;;;5021404;28;20037;-78
2021/06/16 09:47:22;;;;;;;3.08;0.10;;;28.20;56.10;;;;;;5036617;28;20279;-78
2021/06/16 09:50:03;;;;;;;2.03;0.32;;;28.30;54.60;;;;;;5036246;28;20203;-78
2021/06/16 09:52:43;;;;;;;1.45;0.10;;;28.40;54.50;;;;;;5036108;28;20056;-78
2021/06/16 09:55:28;;;;;;;0.95;0.20;;;28.50;54.40;;;;;;5036830;28;20428;-78
2021/06/16 09:58:03;;;;;;;2.92;0.20;;;28.50;52.40;;;;;;5019439;28;20493;-78
2021/06/16 10:00:37;;;;;;;2.58;0.05;;;28.50;53.50;;;;;;5036418;28;20038;-78
2021/06/16 10:03:11;;;;;;;3.70;0.52;;;28.60;54.10;;;;;;5018971;28;20041;-79
2021/06/16 10:06:06;;;;;;;2.08;0.15;;;28.70;54.40;;;;;;5036823;28;20076;-78
2021/06/16 10:08:36;;;;;;;0.70;0.10;;;28.90;53.50;;;;;;5036896;28;20036;-79
2021/06/16 10:11:07;;;;;;;1.20;0.20;;;28.90;51.70;;;;;;5016601;28;20026;-77
2021/06/16 10:13:34;;;;;;;2.85;0.40;;;28.90;52.20;;;;;;5033685;28;20096;-77
2021/06/16 10:16:02;;;;;;;1.33;0.22;;;29.00;52.20;;;;;;5021724;28;20049;-79
2021/06/16 10:18:29;;;;;;;1.27;0.30;;;29.00;52.30;;;;;;5043767;28;20044;-79
2021/06/16 10:20:56;;;;;;;4.07;0.03;;;29.10;52.60;;;;;;5042842;28;20025;-79
2021/06/16 10:23:23;;;;;;;0.43;0.13;;;29.10;51.00;;;;;;5025230;28;20029;-78
2021/06/16 10:25:50;;;;;;;0.82;0.10;;;29.30;52.20;;;;;;5040126;28;20033;-78
2021/06/16 10:28:22;;;;;;;3.90;0.17;;;29.50;53.00;;;;;;5022755;28;20112;-79
2021/06/16 10:30:55;;;;;;;1.15;0.10;;;29.70;51.30;;;;;;5042471;28;20410;-79
2021/06/16 10:33:33;;;;;;;1.30;0.10;;;29.70;50.20;;;;;;5042486;28;20030;-79
2021/06/16 10:36:08;;;;;;;;;;;29.60;50.20;;;;;;5040873;28;20087;-77
2021/06/16 10:38:34;;;;;;;1.88;0.45;;;29.60;50.20;;;;;;5039015;28;19913;-79
2021/06/16 10:41:00;;;;;;;1.00;0.10;;;29.80;50.40;;;;;;5043303;28;20035;-79
2021/06/16 10:43:34;;;;;;;0.85;0.10;;;29.90;50.20;;;;;;5042817;28;20052;-79
2021/06/16 10:46:03;;;;;;;0.45;0.15;;;30.30;50.60;;;;;;5023520;28;20033;-79
2021/06/16 10:48:43;;;;;;;2.53;0.13;;;30.30;49.40;;;;;;5023033;28;20406;-77
2021/06/16 10:51:09;;;;;;;0.55;0.10;;;30.20;49.50;;;;;;5018043;28;20018;-78
2021/06/16 10:53:55;;;;;;;0.40;0.10;;;30.40;50.70;;;;;;5040210;28;20374;-78
2021/06/16 10:56:44;;;;;;;1.25;0.10;;;30.60;49.20;;;;;;5022861;28;20029;-79
2021/06/16 10:59:11;;;;;;;2.53;0.10;;;30.70;49.00;;;;;;5036573;28;20033;-80
2021/06/16 11:01:48;;;;;;;3.00;0.10;;;30.80;48.70;;;;;;5036093;28;20021;-79
2021/06/16 11:04:30;;;;;;;1.50;0.20;;;30.90;48.40;;;;;;5037040;28;20040;-79
2021/06/16 11:06:58;;;;;;;4.20;0.15;;;31.10;48.40;;;;;;5018546;28;20038;-79
2021/06/16 11:09:46;;;;;;;1.42;0.30;;;31.10;48.50;;;;;;5036624;28;20386;-77
2021/06/16 11:12:12;;;;;;;2.35;0.10;;;31.00;48.30;;;;;;5024242;28;20025;-78
2021/06/16 11:14:39;;;;;;;0.82;0.20;;;31.00;49.00;;;;;;5035610;28;20107;-79
2021/06/16 11:17:30;;;;;;;1.80;0.43;;;30.80;49.70;;;;;;5035181;28;20029;-78
2021/06/16 11:20:20;;;;;;;1.40;0.13;;;31.00;50.00;;;;;;5030725;28;20049;-78
2021/06/16 11:22:47;;;;;;;1.27;0.35;;;31.30;49.00;;;;;;5017016;28;20097;-78
2021/06/16 11:25:20;;;;;;;1.33;1.08;;;31.40;49.40;;;;;;5019044;28;20116;-78
2021/06/16 11:27:52;;;;;;;0.65;0.32;;;31.50;49.50;;;;;;5016910;28;20072;-78
2021/06/16 11:30:43;;;;;;;0.60;0.30;;;31.30;49.20;;;;;;5030775;28;20102;-78
2021/06/16 11:33:21;;;;;;;1.05;0.38;;;31.00;48.60;;;;;;5021240;28;20372;-77
2021/06/16 11:35:55;;;;;;;0.93;0.30;;;30.80;49.70;;;;;;5038408;28;20045;-78
2021/06/16 11:38:20;;;;;;;1.00;0.52;;;30.80;51.70;;;;;;5038544;28;20029;-77
2021/06/16 11:41:08;;;;;;;3.13;0.45;;;31.10;49.60;;;;;;5021159;28;20032;-78
2021/06/16 11:43:41;;;;;;;1.20;0.68;;;31.20;49.40;;;;;;5020535;28;20053;-79
2021/06/16 11:46:28;;;;;;;1.27;0.32;;;31.40;48.40;;;;;;5021415;28;20048;-78
2021/06/16 11:49:09;;;;;;;1.40;0.30;;;31.50;48.90;;;;;;5039235;28;20014;-78
2021/06/16 11:51:40;;;;;;;1.40;0.40;;;31.80;48.50;;;;;;5022459;28;20021;-79
2021/06/16 11:54:22;;;;;;;2.05;0.73;;;32.10;48.60;;;;;;5019818;28;20036;-77
2021/06/16 11:56:49;;;;;;;1.55;0.80;;;32.00;48.60;;;;;;5018994;28;20490;-76
2021/06/16 11:59:15;;;;;;;3.30;1.13;;;32.20;47.80;;;;;;5036788;28;20033;-77
2021/06/16 12:01:41;;;;;;;0.93;0.60;;;32.50;47.40;;;;;;5038773;28;20103;-77
2021/06/16 12:04:13;;;;;;;1.95;0.70;;;32.60;47.30;;;;;;5043679;28;20077;-78
2021/06/16 12:06:39;;;;;;;2.58;0.75;;;32.60;47.20;;;;;;5043397;28;20382;-78
2021/06/16 12:09:05;;;;;;;2.13;0.63;;;32.50;47.30;;;;;;5025872;28;20388;-78
2021/06/16 12:11:35;;;;;;;1.52;0.60;;;32.60;47.60;;;;;;5023310;28;20386;-79
2021/06/16 12:14:07;;;;;;;1.67;0.45;;;32.90;47.90;;;;;;5022267;28;20381;-79
2021/06/16 12:16:42;;;;;;;1.45;0.47;;;33.20;46.80;;;;;;5040642;28;20025;-79
2021/06/16 12:19:08;;;;;;;1.52;0.88;;;33.60;47.00;;;;;;5022990;28;20023;-79
2021/06/16 12:21:34;;;;;;;1.27;0.43;;;33.30;45.80;;;;;;5023220;28;20025;-79
2021/06/16 12:24:18;;;;;;;8.18;1.15;;;33.40;46.40;;;;;;5038945;28;20031;-78
2021/06/16 12:26:59;;;;;;;4.47;1.05;;;33.50;45.70;;;;;;5038168;28;20021;-78
2021/06/16 12:29:25;;;;;;;2.03;0.70;;;33.60;46.00;;;;;;5038398;28;20104;-78
2021/06/16 12:31:52;;;;;;;2.45;1.00;;;33.80;46.50;;;;;;5037942;28;20072;-78
2021/06/16 12:37:26;;;;;;;0.98;0.40;;;33.80;46.30;;;;;;5101549;22;20048;-78
2021/06/16 12:40:01;;;;;;;1.88;0.43;;;34.30;46.50;;;;;;5029423;28;20029;-78
2021/06/16 12:42:40;;;;;;;2.08;0.77;;;34.50;45.10;;;;;;5038941;28;20032;-78
2021/06/16 12:45:33;;;;;;;2.63;0.90;;;34.80;43.60;;;;;;5057034;28;20027;-78
2021/06/16 12:48:01;;;;;;;2.40;0.90;;;34.60;44.00;;;;;;5038015;28;20022;-78
2021/06/16 12:50:33;;;;;;;0.93;0.57;;;34.90;44.30;;;;;;5038394;28;20045;-78
2021/06/16 12:53:10;;;;;;;3.58;0.88;;;34.90;43.00;;;;;;5038292;28;20021;-78
2021/06/16 12:55:52;;;;;;;6.10;0.95;;;35.10;42.90;;;;;;5038439;28;20040;-78
2021/06/16 12:58:19;;;;;;;1.05;0.65;;;35.20;43.70;;;;;;5039297;28;20390;-78
2021/06/16 13:00:44;;;;;;;3.00;0.40;;;35.50;42.80;;;;;;5038164;28;20022;-78